sensor_id;sensor_type;location;lat;lon;timestamp;P1;durP1;ratioP1;P2;durP2;ratioP2
55190;SDS011;41070;50.360;18.742;2022-11-20T00:01:29;135.10;;;53.50;;
55190;SDS011;41070;50.360;18.742;2022-11-20T00:03:57;121.00;;;43.50;;
55190;SDS011;41070;50.360;18.742;2022-11-20T00:06:26;153.50;;;56.80;;
55190;SDS011;41070;50.360;18.742;2022-11-20T00:08:56;143.60;;;55.30;;
55190;SDS011;41070;50.360;18.742;2022-11-20T00:15:06;144.20;;;58.10;;
55190;SDS011;41070;50.360;18.742;2022-11-20T00:17:35;139.50;;;54.40;;
55190;SDS011;41070;50.360;18.742;2022-11-20T00:20:03;124.30;;;47.80;;
55190;SDS011;41070;50.360;18.742;2022-11-20T00:22:35;148.30;;;52.80;;
55190;SDS011;41070;50.360;18.742;2022-11-20T00:25:02;142.00;;;53.60;;
55190;SDS011;41070;50.360;18.742;2022-11-20T00:27:30;153.90;;;58.00;;
55190;SDS011;41070;50.360;18.742;2022-11-20T00:29:58;150.70;;;57.50;;
55190;SDS011;41070;50.360;18.742;2022-11-20T00:32:26;145.10;;;51.50;;
55190;SDS011;41070;50.360;18.742;2022-11-20T00:34:53;145.90;;;54.70;;
55190;SDS011;41070;50.360;18.742;2022-11-20T00:37:21;142.80;;;56.70;;
55190;SDS011;41070;50.360;18.742;2022-11-20T00:39:49;152.70;;;56.10;;
55190;SDS011;41070;50.360;18.742;2022-11-20T00:42:16;137.20;;;50.20;;
55190;SDS011;41070;50.360;18.742;2022-11-20T00:44:44;144.10;;;54.70;;
55190;SDS011;41070;50.360;18.742;2022-11-20T00:47:12;132.20;;;51.60;;
55190;SDS011;41070;50.360;18.742;2022-11-20T00:49:39;130.20;;;52.50;;
55190;SDS011;41070;50.360;18.742;2022-11-20T00:52:07;144.80;;;59.20;;
55190;SDS011;41070;50.360;18.742;2022-11-20T00:54:39;149.30;;;57.70;;
55190;SDS011;41070;50.360;18.742;2022-11-20T00:57:10;148.50;;;58.80;;
55190;SDS011;41070;50.360;18.742;2022-11-20T00:59:38;142.30;;;56.50;;
55190;SDS011;41070;50.360;18.742;2022-11-20T01:02:05;152.50;;;61.70;;
55190;SDS011;41070;50.360;18.742;2022-11-20T01:04:33;149.40;;;57.10;;
55190;SDS011;41070;50.360;18.742;2022-11-20T01:07:00;152.50;;;58.30;;
55190;SDS011;41070;50.360;18.742;2022-11-20T01:09:28;149.80;;;58.80;;
55190;SDS011;41070;50.360;18.742;2022-11-20T01:11:56;155.10;;;61.40;;
55190;SDS011;41070;50.360;18.742;2022-11-20T01:14:23;160.90;;;62.10;;
55190;SDS011;41070;50.360;18.742;2022-11-20T01:16:51;142.70;;;54.60;;
55190;SDS011;41070;50.360;18.742;2022-11-20T01:19:20;152.50;;;61.30;;
55190;SDS011;41070;50.360;18.742;2022-11-20T01:21:50;141.70;;;53.10;;
55190;SDS011;41070;50.360;18.742;2022-11-20T01:24:20;158.30;;;63.00;;
55190;SDS011;41070;50.360;18.742;2022-11-20T01:26:49;156.00;;;60.90;;
55190;SDS011;41070;50.360;18.742;2022-11-20T01:29:20;158.70;;;61.00;;
55190;SDS011;41070;50.360;18.742;2022-11-20T01:31:49;169.90;;;62.80;;
55190;SDS011;41070;50.360;18.742;2022-11-20T01:34:19;162.00;;;66.60;;
55190;SDS011;41070;50.360;18.742;2022-11-20T01:36:48;170.10;;;67.70;;
55190;SDS011;41070;50.360;18.742;2022-11-20T01:39:20;176.30;;;65.10;;
55190;SDS011;41070;50.360;18.742;2022-11-20T01:41:51;153.50;;;62.80;;
55190;SDS011;41070;50.360;18.742;2022-11-20T01:47:25;158.60;;;62.90;;
55190;SDS011;41070;50.360;18.742;2022-11-20T01:50:11;161.90;;;62.70;;
55190;SDS011;41070;50.360;18.742;2022-11-20T01:52:49;168.40;;;65.20;;
55190;SDS011;41070;50.360;18.742;2022-11-20T01:55:24;162.80;;;65.50;;
55190;SDS011;41070;50.360;18.742;2022-11-20T01:57:55;163.50;;;62.70;;
55190;SDS011;41070;50.360;18.742;2022-11-20T02:00:24;152.60;;;61.00;;
55190;SDS011;41070;50.360;18.742;2022-11-20T02:02:53;165.80;;;61.90;;
55190;SDS011;41070;50.360;18.742;2022-11-20T02:05:27;154.20;;;63.70;;
55190;SDS011;41070;50.360;18.742;2022-11-20T02:07:59;160.40;;;62.70;;
55190;SDS011;41070;50.360;18.742;2022-11-20T02:10:29;154.70;;;59.40;;
55190;SDS011;41070;50.360;18.742;2022-11-20T02:12:58;163.50;;;64.10;;
55190;SDS011;41070;50.360;18.742;2022-11-20T02:15:43;147.80;;;59.10;;
55190;SDS011;41070;50.360;18.742;2022-11-20T02:18:12;156.30;;;59.50;;
55190;SDS011;41070;50.360;18.742;2022-11-20T02:20:44;149.90;;;58.90;;
55190;SDS011;41070;50.360;18.742;2022-11-20T02:23:26;144.70;;;57.00;;
55190;SDS011;41070;50.360;18.742;2022-11-20T02:26:00;139.90;;;56.80;;
55190;SDS011;41070;50.360;18.742;2022-11-20T02:28:35;141.60;;;58.80;;
55190;SDS011;41070;50.360;18.742;2022-11-20T02:31:03;130.10;;;55.90;;
55190;SDS011;41070;50.360;18.742;2022-11-20T02:33:30;168.70;;;64.10;;
55190;SDS011;41070;50.360;18.742;2022-11-20T02:35:58;143.00;;;59.70;;
55190;SDS011;41070;50.360;18.742;2022-11-20T02:38:25;140.40;;;54.80;;
55190;SDS011;41070;50.360;18.742;2022-11-20T02:40:53;132.80;;;57.30;;
55190;SDS011;41070;50.360;18.742;2022-11-20T02:43:22;160.20;;;64.30;;
55190;SDS011;41070;50.360;18.742;2022-11-20T02:45:50;152.80;;;59.70;;
55190;SDS011;41070;50.360;18.742;2022-11-20T02:48:18;137.80;;;57.90;;
55190;SDS011;41070;50.360;18.742;2022-11-20T02:50:46;157.70;;;60.20;;
55190;SDS011;41070;50.360;18.742;2022-11-20T02:53:13;142.50;;;59.50;;
55190;SDS011;41070;50.360;18.742;2022-11-20T02:55:41;142.50;;;57.60;;
55190;SDS011;41070;50.360;18.742;2022-11-20T02:58:09;137.00;;;54.10;;
55190;SDS011;41070;50.360;18.742;2022-11-20T03:00:36;141.10;;;58.30;;
55190;SDS011;41070;50.360;18.742;2022-11-20T03:03:04;159.60;;;60.10;;
55190;SDS011;41070;50.360;18.742;2022-11-20T03:09:18;138.40;;;58.10;;
55190;SDS011;41070;50.360;18.742;2022-11-20T03:11:46;127.70;;;53.90;;
55190;SDS011;41070;50.360;18.742;2022-11-20T03:14:14;136.60;;;56.80;;
55190;SDS011;41070;50.360;18.742;2022-11-20T03:16:41;144.30;;;54.90;;
55190;SDS011;41070;50.360;18.742;2022-11-20T03:19:09;143.00;;;54.20;;
55190;SDS011;41070;50.360;18.742;2022-11-20T03:21:38;138.60;;;55.10;;
55190;SDS011;41070;50.360;18.742;2022-11-20T03:24:17;134.30;;;53.20;;
55190;SDS011;41070;50.360;18.742;2022-11-20T03:26:45;133.40;;;54.60;;
55190;SDS011;41070;50.360;18.742;2022-11-20T03:29:12;139.20;;;55.00;;
55190;SDS011;41070;50.360;18.742;2022-11-20T03:31:40;148.90;;;58.10;;
55190;SDS011;41070;50.360;18.742;2022-11-20T03:34:09;134.50;;;53.70;;
55190;SDS011;41070;50.360;18.742;2022-11-20T03:36:38;129.40;;;52.20;;
55190;SDS011;41070;50.360;18.742;2022-11-20T03:39:07;120.70;;;49.20;;
55190;SDS011;41070;50.360;18.742;2022-11-20T03:41:36;143.10;;;53.50;;
55190;SDS011;41070;50.360;18.742;2022-11-20T03:44:06;120.90;;;51.50;;
55190;SDS011;41070;50.360;18.742;2022-11-20T03:46:36;102.80;;;48.00;;
55190;SDS011;41070;50.360;18.742;2022-11-20T03:49:04;111.70;;;47.00;;
55190;SDS011;41070;50.360;18.742;2022-11-20T03:51:33;118.90;;;50.20;;
55190;SDS011;41070;50.360;18.742;2022-11-20T03:54:03;99.80;;;47.00;;
55190;SDS011;41070;50.360;18.742;2022-11-20T03:56:37;88.40;;;41.90;;
55190;SDS011;41070;50.360;18.742;2022-11-20T03:59:05;87.60;;;41.80;;
55190;SDS011;41070;50.360;18.742;2022-11-20T04:01:34;82.10;;;36.60;;
55190;SDS011;41070;50.360;18.742;2022-11-20T04:04:04;113.50;;;46.30;;
55190;SDS011;41070;50.360;18.742;2022-11-20T04:06:36;110.10;;;46.40;;
55190;SDS011;41070;50.360;18.742;2022-11-20T04:09:05;119.60;;;51.10;;
55190;SDS011;41070;50.360;18.742;2022-11-20T04:11:34;125.30;;;48.20;;
55190;SDS011;41070;50.360;18.742;2022-11-20T04:14:04;125.20;;;49.10;;
55190;SDS011;41070;50.360;18.742;2022-11-20T04:16:34;119.60;;;49.00;;
55190;SDS011;41070;50.360;18.742;2022-11-20T04:19:04;121.30;;;47.10;;
55190;SDS011;41070;50.360;18.742;2022-11-20T04:21:33;104.50;;;46.50;;
55190;SDS011;41070;50.360;18.742;2022-11-20T04:24:01;111.90;;;48.30;;
55190;SDS011;41070;50.360;18.742;2022-11-20T04:26:29;133.50;;;52.30;;
55190;SDS011;41070;50.360;18.742;2022-11-20T04:28:58;108.90;;;46.30;;
55190;SDS011;41070;50.360;18.742;2022-11-20T04:31:28;117.20;;;48.70;;
55190;SDS011;41070;50.360;18.742;2022-11-20T04:33:59;115.00;;;48.70;;
55190;SDS011;41070;50.360;18.742;2022-11-20T04:36:28;105.30;;;47.70;;
55190;SDS011;41070;50.360;18.742;2022-11-20T04:38:57;104.70;;;45.50;;
55190;SDS011;41070;50.360;18.742;2022-11-20T04:41:27;116.20;;;46.90;;
55190;SDS011;41070;50.360;18.742;2022-11-20T04:43:57;133.60;;;54.60;;
55190;SDS011;41070;50.360;18.742;2022-11-20T04:46:29;105.10;;;44.70;;
55190;SDS011;41070;50.360;18.742;2022-11-20T04:48:58;153.70;;;64.70;;
55190;SDS011;41070;50.360;18.742;2022-11-20T04:51:26;108.60;;;46.40;;
55190;SDS011;41070;50.360;18.742;2022-11-20T04:53:54;122.20;;;49.20;;
55190;SDS011;41070;50.360;18.742;2022-11-20T04:56:22;115.60;;;49.60;;
55190;SDS011;41070;50.360;18.742;2022-11-20T04:58:50;121.90;;;50.60;;
55190;SDS011;41070;50.360;18.742;2022-11-20T05:01:19;122.70;;;50.10;;
55190;SDS011;41070;50.360;18.742;2022-11-20T05:03:49;123.70;;;49.50;;
55190;SDS011;41070;50.360;18.742;2022-11-20T05:06:18;117.10;;;48.50;;
55190;SDS011;41070;50.360;18.742;2022-11-20T05:08:47;129.30;;;50.80;;
55190;SDS011;41070;50.360;18.742;2022-11-20T05:11:16;121.80;;;52.00;;
55190;SDS011;41070;50.360;18.742;2022-11-20T05:13:46;120.70;;;47.00;;
55190;SDS011;41070;50.360;18.742;2022-11-20T05:16:18;113.50;;;46.40;;
55190;SDS011;41070;50.360;18.742;2022-11-20T05:18:48;106.20;;;44.00;;
55190;SDS011;41070;50.360;18.742;2022-11-20T05:21:16;121.80;;;47.20;;
55190;SDS011;41070;50.360;18.742;2022-11-20T05:23:44;120.20;;;50.50;;
55190;SDS011;41070;50.360;18.742;2022-11-20T05:26:14;127.20;;;50.30;;
55190;SDS011;41070;50.360;18.742;2022-11-20T05:28:43;120.50;;;50.50;;
55190;SDS011;41070;50.360;18.742;2022-11-20T05:31:12;133.40;;;47.80;;
55190;SDS011;41070;50.360;18.742;2022-11-20T05:33:43;128.10;;;48.10;;
55190;SDS011;41070;50.360;18.742;2022-11-20T05:36:12;111.60;;;47.00;;
55190;SDS011;41070;50.360;18.742;2022-11-20T05:38:41;112.00;;;47.50;;
55190;SDS011;41070;50.360;18.742;2022-11-20T05:41:16;104.80;;;45.40;;
55190;SDS011;41070;50.360;18.742;2022-11-20T05:43:48;119.80;;;48.70;;
55190;SDS011;41070;50.360;18.742;2022-11-20T05:46:18;106.80;;;46.30;;
55190;SDS011;41070;50.360;18.742;2022-11-20T05:48:47;114.00;;;45.70;;
55190;SDS011;41070;50.360;18.742;2022-11-20T05:51:16;116.30;;;45.30;;
55190;SDS011;41070;50.360;18.742;2022-11-20T05:53:45;105.60;;;43.60;;
55190;SDS011;41070;50.360;18.742;2022-11-20T05:56:15;98.10;;;41.50;;
55190;SDS011;41070;50.360;18.742;2022-11-20T05:58:44;92.70;;;38.80;;
55190;SDS011;41070;50.360;18.742;2022-11-20T06:03:45;87.20;;;38.00;;
55190;SDS011;41070;50.360;18.742;2022-11-20T06:06:14;103.10;;;43.30;;
55190;SDS011;41070;50.360;18.742;2022-11-20T06:08:43;105.20;;;42.30;;
55190;SDS011;41070;50.360;18.742;2022-11-20T06:11:12;135.60;;;45.90;;
55190;SDS011;41070;50.360;18.742;2022-11-20T06:13:40;124.20;;;46.60;;
55190;SDS011;41070;50.360;18.742;2022-11-20T06:16:09;123.20;;;46.00;;
55190;SDS011;41070;50.360;18.742;2022-11-20T06:18:38;109.10;;;45.30;;
55190;SDS011;41070;50.360;18.742;2022-11-20T06:21:07;108.10;;;42.90;;
55190;SDS011;41070;50.360;18.742;2022-11-20T06:23:36;97.40;;;40.20;;
55190;SDS011;41070;50.360;18.742;2022-11-20T06:26:09;119.20;;;46.50;;
55190;SDS011;41070;50.360;18.742;2022-11-20T06:28:39;105.40;;;40.10;;
55190;SDS011;41070;50.360;18.742;2022-11-20T06:31:07;115.00;;;44.70;;
55190;SDS011;41070;50.360;18.742;2022-11-20T06:33:37;103.10;;;43.50;;
55190;SDS011;41070;50.360;18.742;2022-11-20T06:36:04;116.70;;;48.60;;
55190;SDS011;41070;50.360;18.742;2022-11-20T06:38:32;114.20;;;45.70;;
55190;SDS011;41070;50.360;18.742;2022-11-20T06:41:00;95.30;;;41.60;;
55190;SDS011;41070;50.360;18.742;2022-11-20T06:43:28;120.00;;;48.00;;
55190;SDS011;41070;50.360;18.742;2022-11-20T06:46:00;115.30;;;47.40;;
55190;SDS011;41070;50.360;18.742;2022-11-20T06:55:46;86.60;;;37.20;;
55190;SDS011;41070;50.360;18.742;2022-11-20T06:58:15;73.50;;;32.90;;
55190;SDS011;41070;50.360;18.742;2022-11-20T07:00:43;94.00;;;34.80;;
55190;SDS011;41070;50.360;18.742;2022-11-20T07:03:11;93.10;;;39.20;;
55190;SDS011;41070;50.360;18.742;2022-11-20T07:05:39;101.30;;;39.30;;
55190;SDS011;41070;50.360;18.742;2022-11-20T07:08:07;116.40;;;46.10;;
55190;SDS011;41070;50.360;18.742;2022-11-20T07:10:35;115.10;;;45.50;;
55190;SDS011;41070;50.360;18.742;2022-11-20T07:13:03;115.60;;;43.30;;
55190;SDS011;41070;50.360;18.742;2022-11-20T07:15:33;117.30;;;49.30;;
55190;SDS011;41070;50.360;18.742;2022-11-20T07:18:01;120.70;;;49.20;;
55190;SDS011;41070;50.360;18.742;2022-11-20T07:20:29;128.20;;;50.80;;
55190;SDS011;41070;50.360;18.742;2022-11-20T07:22:57;116.00;;;50.50;;
55190;SDS011;41070;50.360;18.742;2022-11-20T07:25:26;130.10;;;53.90;;
55190;SDS011;41070;50.360;18.742;2022-11-20T07:27:57;115.20;;;50.00;;
55190;SDS011;41070;50.360;18.742;2022-11-20T07:30:30;121.60;;;54.10;;
55190;SDS011;41070;50.360;18.742;2022-11-20T07:33:03;136.20;;;55.40;;
55190;SDS011;41070;50.360;18.742;2022-11-20T07:35:35;137.00;;;57.20;;
55190;SDS011;41070;50.360;18.742;2022-11-20T07:38:06;129.20;;;55.40;;
55190;SDS011;41070;50.360;18.742;2022-11-20T07:40:40;122.80;;;51.20;;
55190;SDS011;41070;50.360;18.742;2022-11-20T07:43:14;127.30;;;52.90;;
55190;SDS011;41070;50.360;18.742;2022-11-20T07:45:48;149.40;;;62.10;;
55190;SDS011;41070;50.360;18.742;2022-11-20T07:48:17;144.50;;;57.60;;
55190;SDS011;41070;50.360;18.742;2022-11-20T07:50:45;106.50;;;50.90;;
55190;SDS011;41070;50.360;18.742;2022-11-20T07:53:17;102.20;;;46.40;;
55190;SDS011;41070;50.360;18.742;2022-11-20T07:55:47;83.00;;;39.50;;
55190;SDS011;41070;50.360;18.742;2022-11-20T07:58:15;66.50;;;29.60;;
55190;SDS011;41070;50.360;18.742;2022-11-20T08:00:43;93.70;;;42.40;;
55190;SDS011;41070;50.360;18.742;2022-11-20T08:03:10;107.60;;;43.70;;
55190;SDS011;41070;50.360;18.742;2022-11-20T08:05:42;109.60;;;48.30;;
55190;SDS011;41070;50.360;18.742;2022-11-20T08:08:14;115.10;;;47.30;;
55190;SDS011;41070;50.360;18.742;2022-11-20T08:10:47;96.60;;;44.70;;
55190;SDS011;41070;50.360;18.742;2022-11-20T08:13:22;101.40;;;42.60;;
55190;SDS011;41070;50.360;18.742;2022-11-20T08:16:06;101.80;;;45.90;;
55190;SDS011;41070;50.360;18.742;2022-11-20T08:18:40;101.80;;;45.30;;
55190;SDS011;41070;50.360;18.742;2022-11-20T08:21:13;147.10;;;60.30;;
55190;SDS011;41070;50.360;18.742;2022-11-20T08:23:46;160.90;;;68.70;;
55190;SDS011;41070;50.360;18.742;2022-11-20T08:26:17;156.00;;;66.10;;
55190;SDS011;41070;50.360;18.742;2022-11-20T08:28:49;129.10;;;57.60;;
55190;SDS011;41070;50.360;18.742;2022-11-20T08:31:25;130.70;;;57.20;;
55190;SDS011;41070;50.360;18.742;2022-11-20T08:33:57;118.60;;;51.70;;
55190;SDS011;41070;50.360;18.742;2022-11-20T08:36:32;107.70;;;45.10;;
55190;SDS011;41070;50.360;18.742;2022-11-20T08:39:07;101.50;;;46.00;;
55190;SDS011;41070;50.360;18.742;2022-11-20T08:41:42;105.00;;;45.30;;
55190;SDS011;41070;50.360;18.742;2022-11-20T08:44:21;98.30;;;42.20;;
55190;SDS011;41070;50.360;18.742;2022-11-20T08:46:57;89.10;;;39.50;;
55190;SDS011;41070;50.360;18.742;2022-11-20T08:49:33;85.60;;;37.90;;
55190;SDS011;41070;50.360;18.742;2022-11-20T08:55:12;99.40;;;41.70;;
55190;SDS011;41070;50.360;18.742;2022-11-20T08:57:45;103.00;;;44.90;;
55190;SDS011;41070;50.360;18.742;2022-11-20T09:00:21;97.90;;;43.80;;
55190;SDS011;41070;50.360;18.742;2022-11-20T09:02:55;97.10;;;43.20;;
55190;SDS011;41070;50.360;18.742;2022-11-20T09:05:28;104.60;;;43.40;;
55190;SDS011;41070;50.360;18.742;2022-11-20T09:08:01;104.80;;;46.70;;
55190;SDS011;41070;50.360;18.742;2022-11-20T09:10:32;101.80;;;43.70;;
55190;SDS011;41070;50.360;18.742;2022-11-20T09:13:06;84.80;;;38.00;;
55190;SDS011;41070;50.360;18.742;2022-11-20T09:15:38;77.70;;;36.80;;
55190;SDS011;41070;50.360;18.742;2022-11-20T09:18:13;84.30;;;35.70;;
55190;SDS011;41070;50.360;18.742;2022-11-20T09:20:45;58.00;;;28.90;;
55190;SDS011;41070;50.360;18.742;2022-11-20T09:23:20;74.10;;;32.00;;
55190;SDS011;41070;50.360;18.742;2022-11-20T09:26:11;61.10;;;30.30;;
55190;SDS011;41070;50.360;18.742;2022-11-20T10:09:53;54.00;;;26.80;;
55190;SDS011;41070;50.360;18.742;2022-11-20T10:12:46;59.60;;;29.10;;
55190;SDS011;41070;50.360;18.742;2022-11-20T10:29:36;49.30;;;25.90;;
55190;SDS011;41070;50.360;18.742;2022-11-20T10:32:37;64.80;;;29.40;;
55190;SDS011;41070;50.360;18.742;2022-11-20T10:35:25;68.20;;;29.60;;
55190;SDS011;41070;50.360;18.742;2022-11-20T10:38:18;75.00;;;32.20;;
55190;SDS011;41070;50.360;18.742;2022-11-20T10:41:21;70.30;;;32.00;;
55190;SDS011;41070;50.360;18.742;2022-11-20T10:47:50;67.00;;;28.80;;
55190;SDS011;41070;50.360;18.742;2022-11-20T11:11:30;47.70;;;20.60;;
55190;SDS011;41070;50.360;18.742;2022-11-20T11:20:22;58.40;;;26.40;;
55190;SDS011;41070;50.360;18.742;2022-11-20T11:22:57;53.50;;;23.60;;
55190;SDS011;41070;50.360;18.742;2022-11-20T11:25:35;58.50;;;27.10;;
55190;SDS011;41070;50.360;18.742;2022-11-20T11:34:05;49.90;;;21.90;;
55190;SDS011;41070;50.360;18.742;2022-11-20T11:37:10;39.20;;;20.00;;
55190;SDS011;41070;50.360;18.742;2022-11-20T11:40:09;53.50;;;24.20;;
55190;SDS011;41070;50.360;18.742;2022-11-20T11:50:29;53.40;;;22.70;;
55190;SDS011;41070;50.360;18.742;2022-11-20T11:53:08;62.30;;;26.10;;
55190;SDS011;41070;50.360;18.742;2022-11-20T11:58:40;60.40;;;25.10;;
55190;SDS011;41070;50.360;18.742;2022-11-20T12:01:32;71.00;;;29.70;;
55190;SDS011;41070;50.360;18.742;2022-11-20T12:07:41;54.70;;;24.00;;
55190;SDS011;41070;50.360;18.742;2022-11-20T12:10:43;49.90;;;23.20;;
55190;SDS011;41070;50.360;18.742;2022-11-20T12:16:34;51.30;;;23.40;;
55190;SDS011;41070;50.360;18.742;2022-11-20T12:19:13;45.40;;;23.20;;
55190;SDS011;41070;50.360;18.742;2022-11-20T12:30:15;58.10;;;24.20;;
55190;SDS011;41070;50.360;18.742;2022-11-20T17:29:05;57.90;;;23.70;;
55190;SDS011;41070;50.360;18.742;2022-11-20T17:32:54;45.90;;;18.90;;
55190;SDS011;41070;50.360;18.742;2022-11-20T17:41:48;48.10;;;20.80;;
55190;SDS011;41070;50.360;18.742;2022-11-20T17:44:45;42.70;;;18.40;;
55190;SDS011;41070;50.360;18.742;2022-11-20T17:47:18;35.70;;;16.50;;
55190;SDS011;41070;50.360;18.742;2022-11-20T17:49:50;41.80;;;22.10;;
55190;SDS011;41070;50.360;18.742;2022-11-20T17:52:20;29.30;;;14.30;;
55190;SDS011;41070;50.360;18.742;2022-11-20T17:54:52;41.10;;;17.80;;
55190;SDS011;41070;50.360;18.742;2022-11-20T17:57:30;43.40;;;19.10;;
55190;SDS011;41070;50.360;18.742;2022-11-20T18:03:39;45.10;;;17.50;;
55190;SDS011;41070;50.360;18.742;2022-11-20T18:06:12;34.20;;;15.50;;
55190;SDS011;41070;50.360;18.742;2022-11-20T18:08:47;40.30;;;16.40;;
55190;SDS011;41070;50.360;18.742;2022-11-20T18:11:21;44.00;;;18.40;;
55190;SDS011;41070;50.360;18.742;2022-11-20T18:13:58;57.00;;;26.10;;
55190;SDS011;41070;50.360;18.742;2022-11-20T18:16:58;59.50;;;25.90;;
55190;SDS011;41070;50.360;18.742;2022-11-20T18:19:46;60.80;;;24.30;;
55190;SDS011;41070;50.360;18.742;2022-11-20T18:22:18;62.70;;;25.70;;
55190;SDS011;41070;50.360;18.742;2022-11-20T18:24:50;60.00;;;26.80;;
55190;SDS011;41070;50.360;18.742;2022-11-20T18:27:22;64.60;;;26.30;;
55190;SDS011;41070;50.360;18.742;2022-11-20T18:29:54;58.00;;;24.80;;
55190;SDS011;41070;50.360;18.742;2022-11-20T18:32:30;63.30;;;25.80;;
55190;SDS011;41070;50.360;18.742;2022-11-20T18:38:10;57.50;;;24.60;;
55190;SDS011;41070;50.360;18.742;2022-11-20T18:41:16;51.50;;;23.90;;
55190;SDS011;41070;50.360;18.742;2022-11-20T18:53:03;46.90;;;20.70;;
55190;SDS011;41070;50.360;18.742;2022-11-20T18:58:52;46.50;;;21.60;;
55190;SDS011;41070;50.360;18.742;2022-11-20T19:04:16;52.00;;;23.10;;
55190;SDS011;41070;50.360;18.742;2022-11-20T19:10:26;62.70;;;26.10;;
55190;SDS011;41070;50.360;18.742;2022-11-20T19:12:59;58.90;;;25.80;;
55190;SDS011;41070;50.360;18.742;2022-11-20T19:15:31;61.50;;;26.80;;
55190;SDS011;41070;50.360;18.742;2022-11-20T19:18:09;87.70;;;33.90;;
55190;SDS011;41070;50.360;18.742;2022-11-20T19:20:43;84.10;;;35.50;;
55190;SDS011;41070;50.360;18.742;2022-11-20T19:23:17;82.10;;;36.60;;
55190;SDS011;41070;50.360;18.742;2022-11-20T19:25:57;83.80;;;34.20;;
55190;SDS011;41070;50.360;18.742;2022-11-20T19:28:32;83.30;;;33.60;;
55190;SDS011;41070;50.360;18.742;2022-11-20T19:31:15;78.20;;;32.50;;
55190;SDS011;41070;50.360;18.742;2022-11-20T19:33:54;56.90;;;24.60;;
55190;SDS011;41070;50.360;18.742;2022-11-20T19:36:29;72.80;;;29.70;;
55190;SDS011;41070;50.360;18.742;2022-11-20T19:39:10;82.80;;;34.90;;
55190;SDS011;41070;50.360;18.742;2022-11-20T19:41:42;92.90;;;35.30;;
55190;SDS011;41070;50.360;18.742;2022-11-20T19:44:20;95.60;;;35.80;;
55190;SDS011;41070;50.360;18.742;2022-11-20T19:46:52;95.80;;;32.30;;
55190;SDS011;41070;50.360;18.742;2022-11-20T19:49:29;86.80;;;32.90;;
55190;SDS011;41070;50.360;18.742;2022-11-20T19:57:37;63.70;;;25.00;;
55190;SDS011;41070;50.360;18.742;2022-11-20T20:00:12;46.70;;;20.50;;
55190;SDS011;41070;50.360;18.742;2022-11-20T20:05:34;60.50;;;29.20;;
55190;SDS011;41070;50.360;18.742;2022-11-20T20:14:00;56.00;;;25.40;;
55190;SDS011;41070;50.360;18.742;2022-11-20T20:19:48;64.20;;;26.20;;
55190;SDS011;41070;50.360;18.742;2022-11-20T20:25:26;70.30;;;26.20;;
55190;SDS011;41070;50.360;18.742;2022-11-20T20:28:46;62.80;;;24.50;;
55190;SDS011;41070;50.360;18.742;2022-11-20T20:31:44;63.80;;;25.70;;
55190;SDS011;41070;50.360;18.742;2022-11-20T20:34:21;56.80;;;24.30;;
55190;SDS011;41070;50.360;18.742;2022-11-20T20:36:56;52.40;;;22.30;;
55190;SDS011;41070;50.360;18.742;2022-11-20T20:45:18;43.90;;;19.10;;
55190;SDS011;41070;50.360;18.742;2022-11-20T20:47:51;48.20;;;19.00;;
55190;SDS011;41070;50.360;18.742;2022-11-20T20:53:33;43.90;;;21.30;;
55190;SDS011;41070;50.360;18.742;2022-11-20T20:56:06;49.00;;;20.70;;
55190;SDS011;41070;50.360;18.742;2022-11-20T20:58:39;45.60;;;18.90;;
55190;SDS011;41070;50.360;18.742;2022-11-20T21:01:13;43.00;;;18.60;;
55190;SDS011;41070;50.360;18.742;2022-11-20T21:03:51;49.50;;;20.10;;
55190;SDS011;41070;50.360;18.742;2022-11-20T21:06:25;53.10;;;23.00;;
55190;SDS011;41070;50.360;18.742;2022-11-20T21:09:02;45.30;;;20.90;;
55190;SDS011;41070;50.360;18.742;2022-11-20T21:23:27;55.20;;;24.10;;
